Goodsprings, Alabama
Current Conditions -  °F | °C
As of 2:15 PM on Sunday 21 Dec 2014 (Local Time) from KJFX Reporting Station
Broken Clouds Broken Clouds  
Wind Chill: 61°   Ceiling: 2700
Heat Index: 61°   Visibility: 10mi
Dew Point: 46°   Wind: 0mph
Humidity: 59%   Direction: NA
Pressure: 30.07"   Gusts: NA
Location:  33.67°N, 87.23°W
Report Text: KJFX 212015Z AUTO 00000KT 10SM BKN027 BKN032 16/08 A3007 RMK A02 P-128
Loading
Personal Weather Stations






























Interactive Weather Map New forecast layout! Learn more

10-Day Weather Forecast

Advertisements
Track Severe Weather on mobile